createdAt,value
2017-08-15T00:01:45.458Z,100861.63
2017-08-15T00:04:11.880Z,100857.48
2017-08-15T00:06:38.294Z,100859.38
2017-08-15T00:09:04.667Z,100858.28
2017-08-15T00:11:31.052Z,100850.41
2017-08-15T00:13:57.467Z,100856.00
2017-08-15T00:16:23.854Z,100849.84
2017-08-15T00:18:50.225Z,100846.86
2017-08-15T00:21:16.602Z,100849.41
2017-08-15T00:23:42.967Z,100845.66
2017-08-15T00:26:09.364Z,100843.63
2017-08-15T00:28:35.765Z,100834.72
2017-08-15T00:31:02.173Z,100841.98
2017-08-15T00:33:28.614Z,100840.66
2017-08-15T00:35:55.019Z,100839.83
2017-08-15T00:38:21.448Z,100844.47
2017-08-15T00:40:47.846Z,100839.19
2017-08-15T00:43:14.208Z,100840.23
2017-08-15T00:45:40.588Z,100841.50
2017-08-15T00:48:06.968Z,100835.19
2017-08-15T00:50:33.414Z,100833.92
2017-08-15T00:52:59.855Z,100832.81
2017-08-15T00:55:26.272Z,100825.71
2017-08-15T00:57:52.720Z,100831.45
2017-08-15T01:00:19.136Z,100828.62
2017-08-15T01:02:45.558Z,100824.81
2017-08-15T01:05:11.958Z,100823.95
2017-08-15T01:07:38.368Z,100828.97
2017-08-15T01:10:04.775Z,100831.52
2017-08-15T01:12:31.152Z,100827.13
2017-08-15T01:14:57.523Z,100823.96
2017-08-15T01:17:23.920Z,100820.97
2017-08-15T01:19:50.390Z,100817.03
2017-08-15T01:22:16.847Z,100820.41
2017-08-15T01:24:43.232Z,100824.34
2017-08-15T01:27:09.604Z,100827.00
2017-08-15T01:29:35.977Z,100824.08
2017-08-15T01:32:02.357Z,100825.28
2017-08-15T01:34:28.765Z,100830.00
2017-08-15T01:36:55.133Z,100828.47
2017-08-15T01:39:21.582Z,100831.02
2017-08-15T01:41:47.967Z,100825.77
2017-08-15T01:44:14.331Z,100826.56
2017-08-15T01:46:40.721Z,100832.91
2017-08-15T01:49:07.126Z,100824.03
2017-08-15T01:51:33.506Z,100830.74
2017-08-15T01:53:59.965Z,100829.44
2017-08-15T01:56:26.356Z,100832.83
2017-08-15T01:58:52.736Z,100824.55
2017-08-15T02:01:19.130Z,100817.49
2017-08-15T02:03:45.542Z,100819.98
2017-08-15T02:06:11.933Z,100826.30
2017-08-15T02:08:38.326Z,100826.12
2017-08-15T02:11:04.723Z,100821.25
2017-08-15T02:13:31.139Z,100821.70
2017-08-15T02:15:57.497Z,100826.86
2017-08-15T02:18:23.888Z,100813.00
2017-08-15T02:20:50.279Z,100812.74
2017-08-15T02:23:16.656Z,100806.80
2017-08-15T02:25:43.060Z,100808.22
2017-08-15T02:28:09.437Z,100808.05
2017-08-15T02:30:35.851Z,100812.77
2017-08-15T02:33:02.218Z,100805.02
2017-08-15T02:35:28.584Z,100804.09
2017-08-15T02:37:54.977Z,100805.84
2017-08-15T02:40:21.350Z,100803.23
2017-08-15T02:42:47.771Z,100799.57
2017-08-15T02:45:14.136Z,100788.08
2017-08-15T02:47:40.492Z,100795.66
2017-08-15T02:50:06.869Z,100791.30
2017-08-15T02:52:33.302Z,100795.55
2017-08-15T02:54:59.738Z,100792.08
2017-08-15T02:57:26.135Z,100794.53
2017-08-15T02:59:52.563Z,100794.81
2017-08-15T03:02:19.016Z,100796.58
2017-08-15T03:04:45.410Z,100801.80
2017-08-15T03:07:11.816Z,100793.80
2017-08-15T03:09:38.204Z,100799.69
2017-08-15T03:12:04.587Z,100798.20
2017-08-15T03:14:30.999Z,100795.12
2017-08-15T03:16:57.361Z,100808.34
2017-08-15T03:19:23.804Z,100803.12
2017-08-15T03:21:50.214Z,100808.48
2017-08-15T03:24:16.633Z,100814.39
2017-08-15T03:26:43.040Z,100802.70
2017-08-15T03:29:09.404Z,100798.63
2017-08-15T03:31:35.776Z,100805.70
2017-08-15T03:34:02.192Z,100799.47
2017-08-15T03:36:28.562Z,100797.38
2017-08-15T03:38:54.938Z,100794.59
2017-08-15T03:41:21.287Z,100806.85
2017-08-15T03:43:47.650Z,100807.35
2017-08-15T03:46:14.009Z,100804.09
2017-08-15T03:48:40.421Z,100802.66
2017-08-15T03:51:06.863Z,100798.79
2017-08-15T03:53:33.249Z,100796.58
2017-08-15T03:55:59.647Z,100794.14
2017-08-15T03:58:26.053Z,100788.06
2017-08-15T04:00:52.444Z,100790.97
2017-08-15T04:03:18.821Z,100792.03
2017-08-15T04:05:45.196Z,100790.55
2017-08-15T04:08:11.535Z,100780.21
2017-08-15T04:10:37.939Z,100780.12
2017-08-15T04:13:04.327Z,100779.87
2017-08-15T04:15:30.714Z,100778.81
2017-08-15T04:17:57.085Z,100772.59
2017-08-15T04:20:23.461Z,100776.81
2017-08-15T04:22:49.840Z,100771.98
2017-08-15T04:25:16.233Z,100766.48
2017-08-15T04:27:42.630Z,100766.23
2017-08-15T04:30:08.978Z,100759.30
2017-08-15T04:32:35.400Z,100762.39
2017-08-15T04:35:01.874Z,100765.47
2017-08-15T04:37:28.268Z,100760.25
2017-08-15T04:39:54.633Z,100765.38
2017-08-15T04:42:21.036Z,100765.17
2017-08-15T04:44:47.626Z,100762.31
2017-08-15T04:47:13.994Z,100762.87
2017-08-15T04:49:40.377Z,100765.62
2017-08-15T04:52:06.749Z,100762.51
2017-08-15T04:54:33.138Z,100769.54
2017-08-15T04:56:59.518Z,100768.16
2017-08-15T04:59:25.874Z,100764.03
2017-08-15T05:01:52.285Z,100764.03
2017-08-15T05:04:18.696Z,100773.87
2017-08-15T05:06:45.080Z,100771.14
2017-08-15T05:09:11.490Z,100765.03
2017-08-15T05:11:37.909Z,100759.81
2017-08-15T05:14:04.314Z,100763.31
2017-08-15T05:16:30.695Z,100759.78
2017-08-15T05:18:57.116Z,100757.47
2017-08-15T05:21:23.756Z,100758.58
2017-08-15T05:23:50.148Z,100757.62
2017-08-15T05:26:16.555Z,100755.19
2017-08-15T05:28:42.926Z,100757.00
2017-08-15T05:31:09.309Z,100753.84
2017-08-15T05:33:35.681Z,100760.30
2017-08-15T05:36:02.066Z,100763.02
2017-08-15T05:38:29.341Z,100766.80
2017-08-15T05:40:55.717Z,100762.89
2017-08-15T05:43:22.161Z,100766.41
2017-08-15T05:45:48.550Z,100769.00
2017-08-15T05:48:14.953Z,100764.80
2017-08-15T05:50:41.323Z,100767.81
2017-08-15T05:53:07.698Z,100764.03
2017-08-15T05:55:34.100Z,100767.05
2017-08-15T05:58:00.482Z,100756.95
2017-08-15T06:00:26.918Z,100753.31
2017-08-15T06:02:53.297Z,100748.58
2017-08-15T06:05:19.686Z,100743.30
2017-08-15T06:07:46.076Z,100741.83
2017-08-15T06:10:12.461Z,100742.28
2017-08-15T06:12:38.876Z,100738.75
2017-08-15T06:15:05.263Z,100733.78
2017-08-15T06:17:31.625Z,100733.67
2017-08-15T06:19:58.012Z,100725.29
2017-08-15T06:22:24.394Z,100705.47
2017-08-15T06:24:50.831Z,100690.30
2017-08-15T06:27:17.204Z,100696.80
2017-08-15T06:29:43.640Z,100700.53
2017-08-15T06:32:10.050Z,100709.58
2017-08-15T06:34:36.443Z,100714.02
2017-08-15T06:37:02.897Z,100719.04
2017-08-15T06:39:29.317Z,100727.94
2017-08-15T06:41:55.695Z,100728.59
2017-08-15T06:44:22.086Z,100747.39
2017-08-15T06:46:48.452Z,100736.42
2017-08-15T06:49:14.849Z,100734.23
2017-08-15T06:51:41.257Z,100734.22
2017-08-15T06:54:07.659Z,100730.77
2017-08-15T06:56:34.065Z,100743.47
2017-08-15T06:59:00.456Z,100756.14
2017-08-15T07:01:26.831Z,100758.03
2017-08-15T07:03:53.215Z,100742.45
2017-08-15T07:06:19.593Z,100729.81
2017-08-15T07:08:45.999Z,100726.83
2017-08-15T07:11:12.374Z,100723.38
2017-08-15T07:13:38.770Z,100718.91
2017-08-15T07:16:05.164Z,100710.59
2017-08-15T07:18:31.535Z,100709.81
2017-08-15T07:20:57.894Z,100715.37
2017-08-15T07:23:24.319Z,100709.03
2017-08-15T07:25:50.711Z,100702.74
2017-08-15T07:28:17.128Z,100702.16
2017-08-15T07:30:43.527Z,100707.39
2017-08-15T07:33:10.613Z,100711.41
2017-08-15T07:35:37.040Z,100717.97
2017-08-15T07:38:03.447Z,100706.12
2017-08-15T07:40:29.874Z,100701.78
2017-08-15T07:42:56.259Z,100690.62
2017-08-15T07:45:22.674Z,100687.56
2017-08-15T07:47:49.092Z,100694.16
2017-08-15T07:50:15.474Z,100684.34
2017-08-15T07:52:41.869Z,100686.33
2017-08-15T07:55:08.248Z,100687.04
2017-08-15T07:57:34.659Z,100692.86
2017-08-15T08:00:01.167Z,100699.72
2017-08-15T08:02:27.551Z,100725.77
2017-08-15T08:04:54.776Z,100739.61
2017-08-15T08:07:21.190Z,100745.02
2017-08-15T08:09:48.250Z,100764.22
2017-08-15T08:12:14.841Z,100774.57
2017-08-15T08:14:41.206Z,100787.28
2017-08-15T08:17:07.595Z,100783.45
2017-08-15T08:19:33.939Z,100778.81
2017-08-15T08:22:00.338Z,100777.50
2017-08-15T08:24:26.752Z,100779.02
2017-08-15T08:26:53.148Z,100778.86
2017-08-15T08:29:19.572Z,100770.15
2017-08-15T08:31:47.544Z,100777.98
2017-08-15T08:34:13.971Z,100779.75
2017-08-15T08:36:45.308Z,100799.49
2017-08-15T08:39:13.148Z,100817.84
2017-08-15T08:41:39.557Z,100823.36
2017-08-15T08:44:05.929Z,100834.51
2017-08-15T08:46:32.336Z,100838.16
2017-08-15T08:48:58.730Z,100844.37
2017-08-15T08:51:25.128Z,100841.75
2017-08-15T08:53:51.524Z,100845.42
2017-08-15T08:56:17.920Z,100852.16
2017-08-15T08:58:44.335Z,100854.09
2017-08-15T09:01:10.734Z,100865.03
2017-08-15T09:03:37.158Z,100865.83
2017-08-15T09:06:03.575Z,100865.50
2017-08-15T09:08:29.998Z,100863.52
2017-08-15T09:10:56.376Z,100866.16
2017-08-15T09:13:22.840Z,100860.79
2017-08-15T09:15:49.259Z,100854.49
2017-08-15T09:18:15.771Z,100848.41
2017-08-15T09:20:42.185Z,100851.27
2017-08-15T09:23:08.610Z,100841.64
2017-08-15T09:25:35.035Z,100835.59
2017-08-15T09:28:01.488Z,100841.28
2017-08-15T09:30:27.936Z,100842.49
2017-08-15T09:32:54.335Z,100837.06
2017-08-15T09:35:20.740Z,100837.80
2017-08-15T09:37:47.140Z,100833.78
2017-08-15T09:40:13.582Z,100832.50
2017-08-15T09:42:40.043Z,100835.06
2017-08-15T09:45:06.450Z,100835.89
2017-08-15T09:47:32.935Z,100826.34
2017-08-15T09:49:59.325Z,100834.67
2017-08-15T09:52:25.786Z,100834.67
2017-08-15T09:54:52.185Z,100843.45
2017-08-15T09:57:18.577Z,100854.59
2017-08-15T09:59:44.993Z,100852.03
2017-08-15T10:02:11.432Z,100858.25
2017-08-15T10:04:37.874Z,100852.13
2017-08-15T10:07:04.388Z,100852.07
2017-08-15T10:09:30.798Z,100854.86
2017-08-15T10:11:57.218Z,100851.67
2017-08-15T10:14:23.613Z,100844.96
2017-08-15T10:16:50.040Z,100846.69
2017-08-15T10:19:16.519Z,100841.46
2017-08-15T10:21:43.017Z,100847.47
2017-08-15T10:24:09.433Z,100834.20
2017-08-15T10:26:35.824Z,100835.95
2017-08-15T10:29:02.241Z,100834.88
2017-08-15T10:31:28.605Z,100833.98
2017-08-15T10:33:55.055Z,100831.84
2017-08-15T10:36:21.438Z,100826.98
2017-08-15T10:38:47.827Z,100820.98
2017-08-15T10:41:14.212Z,100804.98
2017-08-15T10:43:40.611Z,100798.47
2017-08-15T10:46:07.015Z,100782.33
2017-08-15T10:48:33.405Z,100792.56
2017-08-15T10:50:59.839Z,100767.70
2017-08-15T10:53:26.254Z,100729.95
2017-08-15T10:55:52.631Z,100692.53
2017-08-15T10:58:19.094Z,100624.86
2017-08-15T11:00:45.541Z,100572.06
2017-08-15T11:03:11.909Z,100552.08
2017-08-15T11:05:38.340Z,100544.02
2017-08-15T11:08:04.730Z,100548.08
2017-08-15T11:10:31.106Z,100552.78
2017-08-15T11:12:57.510Z,100561.25
2017-08-15T11:15:24.209Z,100584.55
2017-08-15T11:17:50.678Z,100617.63
2017-08-15T11:20:17.123Z,100635.16
2017-08-15T11:22:43.501Z,100644.78
2017-08-15T11:25:10.477Z,100637.45
2017-08-15T11:27:36.865Z,100633.45
2017-08-15T11:30:03.292Z,100631.13
2017-08-15T11:32:29.691Z,100634.03
2017-08-15T11:34:56.077Z,100625.55
2017-08-15T11:37:22.480Z,100610.45
2017-08-15T11:39:49.873Z,100606.38
2017-08-15T11:42:16.332Z,100606.52
2017-08-15T11:44:42.710Z,100603.88
2017-08-15T11:47:09.116Z,100612.16
2017-08-15T11:49:35.512Z,100615.64
2017-08-15T11:52:01.920Z,100624.86
2017-08-15T11:54:28.307Z,100616.08
2017-08-15T11:56:54.697Z,100614.50
2017-08-15T11:59:21.067Z,100615.25
2017-08-15T12:01:47.446Z,100611.81
2017-08-15T12:04:13.823Z,100614.09
2017-08-15T12:06:40.243Z,100610.05
2017-08-15T12:09:07.291Z,100607.21
2017-08-15T12:11:33.726Z,100620.88
2017-08-15T12:14:00.121Z,100622.63
2017-08-15T12:16:26.519Z,100620.70
2017-08-15T12:18:52.921Z,100621.24
2017-08-15T12:21:19.303Z,100626.06
2017-08-15T12:23:45.699Z,100625.45
2017-08-15T12:26:12.083Z,100619.93
2017-08-15T12:28:38.470Z,100620.37
2017-08-15T12:31:04.899Z,100622.65
2017-08-15T12:33:31.299Z,100622.35
2017-08-15T12:35:57.699Z,100622.45
2017-08-15T12:38:24.076Z,100626.41
2017-08-15T12:40:50.471Z,100636.45
2017-08-15T12:43:16.867Z,100627.59
2017-08-15T12:45:43.295Z,100624.63
2017-08-15T12:48:09.703Z,100627.33
2017-08-15T12:50:36.103Z,100634.98
2017-08-15T12:53:02.515Z,100628.70
2017-08-15T12:55:28.948Z,100635.41
2017-08-15T12:57:55.356Z,100626.66
2017-08-15T13:00:21.754Z,100619.60
2017-08-15T13:02:48.143Z,100614.86
2017-08-15T13:05:14.640Z,100619.63
2017-08-15T13:07:41.047Z,100617.66
2017-08-15T13:10:07.459Z,100625.34
2017-08-15T13:12:33.955Z,100619.35
2017-08-15T13:15:00.367Z,100619.27
2017-08-15T13:17:26.750Z,100614.30
2017-08-15T13:19:53.167Z,100619.38
2017-08-15T13:22:19.687Z,100626.65
2017-08-15T13:24:46.128Z,100625.94
2017-08-15T13:27:12.572Z,100626.30
2017-08-15T13:29:39.078Z,100625.33
2017-08-15T13:32:05.503Z,100629.92
2017-08-15T13:34:31.955Z,100649.30
2017-08-15T13:36:58.417Z,100650.12
2017-08-15T13:39:24.886Z,100645.93
2017-08-15T13:41:51.303Z,100654.16
2017-08-15T13:44:17.740Z,100649.34
2017-08-15T13:46:44.240Z,100635.45
2017-08-15T13:49:10.689Z,100641.41
2017-08-15T13:51:37.083Z,100647.88
2017-08-15T13:54:03.476Z,100654.16
2017-08-15T13:56:29.887Z,100662.96
2017-08-15T13:58:56.323Z,100667.67
2017-08-15T14:01:22.759Z,100668.73
2017-08-15T14:03:49.194Z,100665.18
2017-08-15T14:06:15.636Z,100673.81
2017-08-15T14:08:42.107Z,100685.58
2017-08-15T14:11:08.539Z,100690.03
2017-08-15T14:13:34.965Z,100701.71
2017-08-15T14:16:01.414Z,100709.81
2017-08-15T14:18:27.882Z,100722.19
2017-08-15T14:20:54.283Z,100733.30
2017-08-15T14:23:20.705Z,100734.40
2017-08-15T14:25:47.127Z,100744.36
2017-08-15T14:28:13.531Z,100747.31
2017-08-15T14:30:39.973Z,100760.23
2017-08-15T14:33:06.419Z,100761.44
2017-08-15T14:35:32.857Z,100764.31
2017-08-15T14:37:59.234Z,100760.55
2017-08-15T14:40:25.642Z,100760.52
2017-08-15T14:42:52.120Z,100766.34
2017-08-15T14:45:18.503Z,100769.91
2017-08-15T14:47:44.895Z,100758.91
2017-08-15T14:50:11.321Z,100753.18
2017-08-15T14:52:37.764Z,100751.50
2017-08-15T14:55:04.174Z,100756.73
2017-08-15T14:57:30.651Z,100765.02
2017-08-15T14:59:57.089Z,100761.28
2017-08-15T15:02:23.509Z,100761.71
2017-08-15T15:04:49.953Z,100761.03
2017-08-15T15:07:16.371Z,100754.28
2017-08-15T15:09:42.810Z,100747.41
2017-08-15T15:12:09.241Z,100741.86
2017-08-15T15:14:35.648Z,100751.23
2017-08-15T15:17:02.087Z,100750.34
2017-08-15T15:19:28.520Z,100747.48
2017-08-15T15:21:54.957Z,100748.52
2017-08-15T15:24:21.391Z,100744.11
2017-08-15T15:26:47.833Z,100747.73
2017-08-15T15:29:14.295Z,100738.77
2017-08-15T15:31:41.365Z,100745.68
2017-08-15T15:34:07.823Z,100739.44
2017-08-15T15:36:34.253Z,100741.30
2017-08-15T15:39:00.629Z,100738.26
2017-08-15T15:41:27.065Z,100743.30
2017-08-15T15:43:53.493Z,100739.02
2017-08-15T15:46:19.887Z,100732.44
2017-08-15T15:48:46.320Z,100730.57
2017-08-15T15:51:12.766Z,100724.73
2017-08-15T15:53:39.146Z,100720.78
2017-08-15T15:56:05.530Z,100730.47
2017-08-15T15:58:31.904Z,100720.02
2017-08-15T16:01:01.534Z,100726.27
2017-08-15T16:03:27.935Z,100727.26
2017-08-15T16:05:54.294Z,100724.13
2017-08-15T16:08:20.684Z,100729.28
2017-08-15T16:10:47.075Z,100727.16
2017-08-15T16:13:13.472Z,100729.69
2017-08-15T16:15:39.847Z,100736.37
2017-08-15T16:18:06.252Z,100741.89
2017-08-15T16:20:32.665Z,100749.08
2017-08-15T16:22:59.031Z,100744.59
2017-08-15T16:25:25.403Z,100758.91
2017-08-15T16:27:51.841Z,100765.59
2017-08-15T16:30:18.217Z,100761.27
2017-08-15T16:32:44.580Z,100763.37
2017-08-15T16:35:10.982Z,100761.58
2017-08-15T16:37:37.379Z,100757.00
2017-08-15T16:40:03.795Z,100759.42
2017-08-15T16:42:30.220Z,100757.95
2017-08-15T16:44:56.674Z,100757.69
2017-08-15T16:47:23.106Z,100757.10
2017-08-15T16:49:55.173Z,100745.51
2017-08-15T16:52:21.853Z,100740.59
2017-08-15T16:54:48.512Z,100741.58
2017-08-15T16:57:14.956Z,100739.45
2017-08-15T16:59:41.552Z,100742.71
2017-08-15T17:02:07.994Z,100754.19
2017-08-15T17:04:34.434Z,100748.75
2017-08-15T17:07:00.783Z,100749.55
2017-08-15T17:09:27.409Z,100753.59
2017-08-15T17:11:55.665Z,100754.45
2017-08-15T17:14:22.567Z,100758.73
2017-08-15T17:16:49.139Z,100752.51
2017-08-15T17:19:15.566Z,100755.24
2017-08-15T17:21:42.211Z,100741.72
2017-08-15T17:24:09.039Z,100739.35
2017-08-15T17:26:35.658Z,100746.27
2017-08-15T17:29:02.234Z,100749.52
2017-08-15T17:31:29.229Z,100745.64
2017-08-15T17:33:56.007Z,100743.50
2017-08-15T17:36:22.363Z,100744.91
2017-08-15T17:38:48.752Z,100751.75
2017-08-15T17:41:15.190Z,100759.73
2017-08-15T17:43:41.558Z,100768.84
2017-08-15T17:46:07.955Z,100766.45
2017-08-15T17:48:34.334Z,100767.06
2017-08-15T17:51:00.762Z,100764.53
2017-08-15T17:53:27.212Z,100773.19
2017-08-15T17:55:53.588Z,100774.25
2017-08-15T17:58:19.976Z,100774.52
2017-08-15T18:00:46.335Z,100771.52
2017-08-15T18:03:12.922Z,100780.34
2017-08-15T18:05:39.303Z,100776.98
2017-08-15T18:08:05.670Z,100778.30
2017-08-15T18:10:32.062Z,100776.80
2017-08-15T18:12:58.461Z,100788.77
2017-08-15T18:15:26.040Z,100788.63
2017-08-15T18:17:53.521Z,100790.97
2017-08-15T18:20:19.892Z,100786.23
2017-08-15T18:22:46.288Z,100783.66
2017-08-15T18:25:12.728Z,100782.15
2017-08-15T18:27:39.132Z,100783.63
2017-08-15T18:30:05.512Z,100793.13
2017-08-15T18:32:31.897Z,100790.16
2017-08-15T18:34:58.281Z,100790.92
2017-08-15T18:37:24.669Z,100795.31
2017-08-15T18:39:51.092Z,100794.81
2017-08-15T18:42:17.473Z,100795.31
2017-08-15T18:44:43.854Z,100800.53
2017-08-15T18:47:10.283Z,100806.47
2017-08-15T18:49:36.692Z,100806.47
2017-08-15T18:52:03.128Z,100805.77
2017-08-15T18:54:29.548Z,100814.62
2017-08-15T18:56:55.931Z,100813.92
2017-08-15T18:59:22.317Z,100820.17
2017-08-15T19:01:48.724Z,100832.09
2017-08-15T19:04:15.138Z,100831.44
2017-08-15T19:06:41.568Z,100837.97
2017-08-15T19:09:07.969Z,100842.92
2017-08-15T19:11:34.427Z,100831.39
2017-08-15T19:14:00.814Z,100843.08
2017-08-15T19:16:27.262Z,100841.80
2017-08-15T19:18:53.744Z,100849.81
2017-08-15T19:21:20.204Z,100850.52
2017-08-15T19:23:46.587Z,100847.98
2017-08-15T19:26:12.998Z,100853.97
2017-08-15T19:28:39.391Z,100850.97
2017-08-15T19:31:05.804Z,100854.88
2017-08-15T19:33:32.215Z,100856.45
2017-08-15T19:35:58.618Z,100861.63
2017-08-15T19:38:25.022Z,100862.42
2017-08-15T19:40:51.398Z,100861.03
2017-08-15T19:43:17.817Z,100865.78
2017-08-15T19:45:44.199Z,100870.20
2017-08-15T19:48:10.599Z,100873.64
2017-08-15T19:50:36.993Z,100877.09
2017-08-15T19:53:03.364Z,100883.84
2017-08-15T19:55:29.736Z,100883.57
2017-08-15T19:57:56.110Z,100888.95
2017-08-15T20:00:22.512Z,100895.77
2017-08-15T20:02:48.927Z,100890.30
2017-08-15T20:05:15.344Z,100892.88
2017-08-15T20:07:41.770Z,100895.91
2017-08-15T20:10:08.188Z,100896.77
2017-08-15T20:12:34.631Z,100891.02
2017-08-15T20:15:01.040Z,100892.83
2017-08-15T20:17:27.473Z,100898.66
2017-08-15T20:19:53.861Z,100908.19
2017-08-15T20:22:20.287Z,100916.69
2017-08-15T20:24:46.670Z,100912.29
2017-08-15T20:27:13.128Z,100915.25
2017-08-15T20:29:39.534Z,100918.04
2017-08-15T20:32:05.960Z,100916.42
2017-08-15T20:37:08.573Z,100918.52
2017-08-15T20:39:34.955Z,100921.42
2017-08-15T20:42:01.396Z,100924.06
2017-08-15T20:44:28.229Z,100921.70
2017-08-15T20:46:54.598Z,100927.36
2017-08-15T20:49:21.596Z,100929.71
2017-08-15T20:51:48.001Z,100932.47
2017-08-15T20:54:14.427Z,100938.98
2017-08-15T20:56:40.864Z,100943.66
2017-08-15T20:59:07.279Z,100946.42
2017-08-15T21:01:33.707Z,100944.73
2017-08-15T21:04:00.171Z,100949.48
2017-08-15T21:06:26.604Z,100956.86
2017-08-15T21:08:53.019Z,100952.55
2017-08-15T21:11:19.640Z,100945.54
2017-08-15T21:13:46.112Z,100951.53
2017-08-15T21:16:12.532Z,100952.88
2017-08-15T21:18:38.943Z,100950.55
2017-08-15T21:21:05.324Z,100951.05
2017-08-15T21:23:31.729Z,100956.43
2017-08-15T21:25:58.142Z,100956.52
2017-08-15T21:28:24.537Z,100962.31
2017-08-15T21:30:50.949Z,100966.84
2017-08-15T21:33:17.372Z,100976.32
2017-08-15T21:35:43.771Z,100976.59
2017-08-15T21:38:10.168Z,100991.49
2017-08-15T21:40:36.993Z,100986.53
2017-08-15T21:43:03.363Z,100993.69
2017-08-15T21:45:30.658Z,100999.37
2017-08-15T21:47:57.090Z,101000.30
2017-08-15T21:50:23.580Z,100987.30
2017-08-15T21:52:49.975Z,100994.82
2017-08-15T21:55:16.422Z,101004.27
2017-08-15T21:57:42.890Z,101012.91
2017-08-15T22:00:09.300Z,101017.88
2017-08-15T22:02:35.762Z,101015.63
2017-08-15T22:05:02.219Z,101019.28
2017-08-15T22:07:28.621Z,101022.55
2017-08-15T22:09:55.016Z,101021.56
2017-08-15T22:12:21.425Z,101025.52
2017-08-15T22:14:47.852Z,101032.20
2017-08-15T22:17:14.370Z,101036.66
2017-08-15T22:19:40.741Z,101030.78
2017-08-15T22:22:07.153Z,101037.73
2017-08-15T22:24:33.668Z,101039.22
2017-08-15T22:27:00.042Z,101035.89
2017-08-15T22:29:26.426Z,101036.66
2017-08-15T22:31:52.812Z,101047.37
2017-08-15T22:34:19.296Z,101055.86
2017-08-15T22:36:45.744Z,101056.21
2017-08-15T22:39:12.161Z,101056.27
2017-08-15T22:41:38.646Z,101056.28
2017-08-15T22:44:05.165Z,101055.20
2017-08-15T22:46:31.600Z,101054.92
2017-08-15T22:48:58.064Z,101071.53
2017-08-15T22:51:24.485Z,101060.45
2017-08-15T22:53:51.140Z,101067.94
2017-08-15T22:56:17.803Z,101068.94
2017-08-15T22:58:44.272Z,101066.17
2017-08-15T23:01:11.222Z,101069.92
2017-08-15T23:03:37.668Z,101080.91
2017-08-15T23:06:04.991Z,101080.38
2017-08-15T23:08:31.511Z,101076.63
2017-08-15T23:10:57.929Z,101084.30
2017-08-15T23:13:24.431Z,101083.08
2017-08-15T23:15:51.790Z,101083.08
2017-08-15T23:18:18.251Z,101084.72
2017-08-15T23:20:44.703Z,101087.31
2017-08-15T23:23:11.164Z,101086.70
2017-08-15T23:25:37.650Z,101088.94
2017-08-15T23:28:04.136Z,101096.30
2017-08-15T23:30:30.792Z,101086.88
2017-08-15T23:32:57.271Z,101093.33
2017-08-15T23:35:23.722Z,101092.95
2017-08-15T23:37:50.229Z,101095.36
2017-08-15T23:40:16.808Z,101091.48
2017-08-15T23:42:43.465Z,101102.09
2017-08-15T23:45:09.941Z,101098.75
2017-08-15T23:47:36.398Z,101105.41
2017-08-15T23:50:03.109Z,101106.80
2017-08-15T23:52:29.601Z,101102.66
2017-08-15T23:54:56.069Z,101099.73
2017-08-15T23:57:22.517Z,101107.89
2017-08-15T23:59:49.006Z,101099.75
